sensor_id;sensor_type;location;lat;lon;timestamp;P1;durP1;ratioP1;P2;durP2;ratioP2
52043;SDS011;38053;53.100;6.078;2023-09-18T00:00:51;52.63;;;35.80;;
52043;SDS011;38053;53.100;6.078;2023-09-18T00:03:17;53.10;;;36.17;;
52043;SDS011;38053;53.100;6.078;2023-09-18T00:05:45;46.97;;;35.75;;
52043;SDS011;38053;53.100;6.078;2023-09-18T00:08:12;37.28;;;33.25;;
52043;SDS011;38053;53.100;6.078;2023-09-18T00:10:38;53.72;;;37.03;;
52043;SDS011;38053;53.100;6.078;2023-09-18T00:13:04;45.78;;;36.10;;
52043;SDS011;38053;53.100;6.078;2023-09-18T00:15:39;43.05;;;34.33;;
52043;SDS011;38053;53.100;6.078;2023-09-18T00:18:06;51.95;;;36.47;;
52043;SDS011;38053;53.100;6.078;2023-09-18T00:20:33;53.67;;;35.78;;
52043;SDS011;38053;53.100;6.078;2023-09-18T00:22:58;44.40;;;35.85;;
52043;SDS011;38053;53.100;6.078;2023-09-18T00:25:24;52.78;;;36.97;;
52043;SDS011;38053;53.100;6.078;2023-09-18T00:27:50;41.78;;;35.88;;
52043;SDS011;38053;53.100;6.078;2023-09-18T00:30:17;48.35;;;38.13;;
52043;SDS011;38053;53.100;6.078;2023-09-18T00:32:42;46.40;;;34.85;;
52043;SDS011;38053;53.100;6.078;2023-09-18T00:35:08;56.60;;;38.28;;
52043;SDS011;38053;53.100;6.078;2023-09-18T00:37:35;53.50;;;37.13;;
52043;SDS011;38053;53.100;6.078;2023-09-18T00:40:02;74.05;;;40.85;;
52043;SDS011;38053;53.100;6.078;2023-09-18T00:42:30;56.88;;;37.83;;
52043;SDS011;38053;53.100;6.078;2023-09-18T00:44:55;49.00;;;38.03;;
52043;SDS011;38053;53.100;6.078;2023-09-18T00:47:22;65.00;;;40.20;;
52043;SDS011;38053;53.100;6.078;2023-09-18T00:49:56;43.35;;;36.30;;
52043;SDS011;38053;53.100;6.078;2023-09-18T00:52:22;58.75;;;39.60;;
52043;SDS011;38053;53.100;6.078;2023-09-18T00:54:49;53.50;;;36.58;;
52043;SDS011;38053;53.100;6.078;2023-09-18T00:57:16;47.40;;;35.33;;
52043;SDS011;38053;53.100;6.078;2023-09-18T00:59:43;55.28;;;37.65;;
52043;SDS011;38053;53.100;6.078;2023-09-18T01:02:09;48.22;;;35.33;;
52043;SDS011;38053;53.100;6.078;2023-09-18T01:04:35;66.68;;;39.25;;
52043;SDS011;38053;53.100;6.078;2023-09-18T01:07:02;57.45;;;34.13;;
52043;SDS011;38053;53.100;6.078;2023-09-18T01:09:32;52.47;;;34.00;;
52043;SDS011;38053;53.100;6.078;2023-09-18T01:17:22;45.22;;;35.55;;
52043;SDS011;38053;53.100;6.078;2023-09-18T01:19:48;44.75;;;33.55;;
52043;SDS011;38053;53.100;6.078;2023-09-18T01:22:15;51.33;;;36.65;;
52043;SDS011;38053;53.100;6.078;2023-09-18T01:24:42;43.28;;;33.40;;
52043;SDS011;38053;53.100;6.078;2023-09-18T01:27:13;41.30;;;32.47;;
52043;SDS011;38053;53.100;6.078;2023-09-18T01:29:40;41.78;;;32.42;;
52043;SDS011;38053;53.100;6.078;2023-09-18T01:32:06;46.70;;;33.15;;
52043;SDS011;38053;53.100;6.078;2023-09-18T01:34:42;38.85;;;31.77;;
52043;SDS011;38053;53.100;6.078;2023-09-18T01:37:13;54.95;;;38.17;;
52043;SDS011;38053;53.100;6.078;2023-09-18T01:39:41;45.40;;;35.78;;
52043;SDS011;38053;53.100;6.078;2023-09-18T01:42:08;52.78;;;37.65;;
52043;SDS011;38053;53.100;6.078;2023-09-18T01:44:35;37.25;;;32.58;;
52043;SDS011;38053;53.100;6.078;2023-09-18T01:47:12;54.90;;;36.90;;
52043;SDS011;38053;53.100;6.078;2023-09-18T01:49:41;40.10;;;32.60;;
52043;SDS011;38053;53.100;6.078;2023-09-18T01:52:08;44.45;;;33.25;;
52043;SDS011;38053;53.100;6.078;2023-09-18T01:54:35;45.70;;;34.45;;
52043;SDS011;38053;53.100;6.078;2023-09-18T01:57:01;57.40;;;35.75;;
52043;SDS011;38053;53.100;6.078;2023-09-18T01:59:27;58.05;;;38.90;;
52043;SDS011;38053;53.100;6.078;2023-09-18T02:01:54;49.65;;;37.05;;
52043;SDS011;38053;53.100;6.078;2023-09-18T02:04:20;50.45;;;36.45;;
52043;SDS011;38053;53.100;6.078;2023-09-18T02:06:47;48.55;;;35.83;;
52043;SDS011;38053;53.100;6.078;2023-09-18T02:09:14;52.92;;;39.50;;
52043;SDS011;38053;53.100;6.078;2023-09-18T02:11:40;43.90;;;34.08;;
52043;SDS011;38053;53.100;6.078;2023-09-18T02:14:08;50.00;;;36.30;;
52043;SDS011;38053;53.100;6.078;2023-09-18T02:16:35;48.08;;;36.67;;
52043;SDS011;38053;53.100;6.078;2023-09-18T02:19:08;48.92;;;36.28;;
52043;SDS011;38053;53.100;6.078;2023-09-18T02:21:34;59.58;;;37.28;;
52043;SDS011;38053;53.100;6.078;2023-09-18T02:24:00;42.90;;;34.45;;
52043;SDS011;38053;53.100;6.078;2023-09-18T02:26:27;51.92;;;36.33;;
52043;SDS011;38053;53.100;6.078;2023-09-18T02:28:53;47.53;;;35.35;;
52043;SDS011;38053;53.100;6.078;2023-09-18T02:31:20;44.50;;;34.95;;
52043;SDS011;38053;53.100;6.078;2023-09-18T02:33:46;44.58;;;33.88;;
52043;SDS011;38053;53.100;6.078;2023-09-18T02:36:13;49.70;;;36.63;;
52043;SDS011;38053;53.100;6.078;2023-09-18T02:38:40;49.22;;;35.28;;
52043;SDS011;38053;53.100;6.078;2023-09-18T02:41:08;48.00;;;33.58;;
52043;SDS011;38053;53.100;6.078;2023-09-18T02:43:34;46.95;;;33.88;;
52043;SDS011;38053;53.100;6.078;2023-09-18T02:46:02;44.83;;;32.30;;
52043;SDS011;38053;53.100;6.078;2023-09-18T02:48:28;40.83;;;32.40;;
52043;SDS011;38053;53.100;6.078;2023-09-18T02:50:53;45.60;;;32.92;;
52043;SDS011;38053;53.100;6.078;2023-09-18T02:53:20;50.20;;;37.50;;
52043;SDS011;38053;53.100;6.078;2023-09-18T02:55:49;42.55;;;35.42;;
52043;SDS011;38053;53.100;6.078;2023-09-18T02:58:17;67.07;;;34.53;;
52043;SDS011;38053;53.100;6.078;2023-09-18T03:00:47;37.63;;;32.97;;
52043;SDS011;38053;53.100;6.078;2023-09-18T03:03:15;41.50;;;33.75;;
52043;SDS011;38053;53.100;6.078;2023-09-18T03:05:41;47.97;;;34.30;;
52043;SDS011;38053;53.100;6.078;2023-09-18T03:08:08;43.63;;;34.53;;
52043;SDS011;38053;53.100;6.078;2023-09-18T03:10:36;44.45;;;34.80;;
52043;SDS011;38053;53.100;6.078;2023-09-18T03:13:06;40.60;;;33.97;;
52043;SDS011;38053;53.100;6.078;2023-09-18T03:15:33;49.35;;;34.60;;
52043;SDS011;38053;53.100;6.078;2023-09-18T03:18:01;43.63;;;32.72;;
52043;SDS011;38053;53.100;6.078;2023-09-18T03:20:29;42.25;;;34.50;;
52043;SDS011;38053;53.100;6.078;2023-09-18T03:22:56;50.70;;;37.28;;
52043;SDS011;38053;53.100;6.078;2023-09-18T03:25:24;39.80;;;33.85;;
52043;SDS011;38053;53.100;6.078;2023-09-18T03:27:51;41.35;;;34.75;;
52043;SDS011;38053;53.100;6.078;2023-09-18T03:30:21;41.40;;;34.40;;
52043;SDS011;38053;53.100;6.078;2023-09-18T03:32:48;42.45;;;35.25;;
52043;SDS011;38053;53.100;6.078;2023-09-18T03:35:14;43.38;;;35.25;;
52043;SDS011;38053;53.100;6.078;2023-09-18T03:37:44;44.17;;;35.25;;
52043;SDS011;38053;53.100;6.078;2023-09-18T03:40:13;48.08;;;35.40;;
52043;SDS011;38053;53.100;6.078;2023-09-18T03:42:39;53.88;;;36.83;;
52043;SDS011;38053;53.100;6.078;2023-09-18T03:45:05;40.92;;;35.13;;
52043;SDS011;38053;53.100;6.078;2023-09-18T03:47:33;46.08;;;36.20;;
52043;SDS011;38053;53.100;6.078;2023-09-18T03:50:01;41.53;;;34.70;;
52043;SDS011;38053;53.100;6.078;2023-09-18T03:52:27;45.95;;;37.63;;
52043;SDS011;38053;53.100;6.078;2023-09-18T03:54:53;40.80;;;33.58;;
52043;SDS011;38053;53.100;6.078;2023-09-18T03:57:18;48.05;;;36.10;;
52043;SDS011;38053;53.100;6.078;2023-09-18T03:59:44;40.45;;;34.35;;
52043;SDS011;38053;53.100;6.078;2023-09-18T04:02:10;47.83;;;37.00;;
52043;SDS011;38053;53.100;6.078;2023-09-18T04:04:35;44.17;;;35.85;;
52043;SDS011;38053;53.100;6.078;2023-09-18T04:07:05;43.45;;;36.20;;
52043;SDS011;38053;53.100;6.078;2023-09-18T04:09:31;43.13;;;35.20;;
52043;SDS011;38053;53.100;6.078;2023-09-18T04:11:57;42.90;;;35.45;;
52043;SDS011;38053;53.100;6.078;2023-09-18T04:14:25;46.00;;;36.67;;
52043;SDS011;38053;53.100;6.078;2023-09-18T04:16:51;43.97;;;36.65;;
52043;SDS011;38053;53.100;6.078;2023-09-18T04:19:17;41.95;;;34.35;;
52043;SDS011;38053;53.100;6.078;2023-09-18T04:21:43;46.55;;;36.17;;
52043;SDS011;38053;53.100;6.078;2023-09-18T04:24:10;42.63;;;35.40;;
52043;SDS011;38053;53.100;6.078;2023-09-18T04:26:35;43.83;;;34.72;;
52043;SDS011;38053;53.100;6.078;2023-09-18T04:29:03;42.10;;;32.92;;
52043;SDS011;38053;53.100;6.078;2023-09-18T04:31:29;41.80;;;33.20;;
52043;SDS011;38053;53.100;6.078;2023-09-18T04:33:55;45.88;;;32.80;;
52043;SDS011;38053;53.100;6.078;2023-09-18T04:36:23;41.85;;;34.85;;
52043;SDS011;38053;53.100;6.078;2023-09-18T04:38:50;44.15;;;32.05;;
52043;SDS011;38053;53.100;6.078;2023-09-18T04:41:16;39.90;;;32.45;;
52043;SDS011;38053;53.100;6.078;2023-09-18T04:43:41;38.38;;;31.95;;
52043;SDS011;38053;53.100;6.078;2023-09-18T04:46:10;35.05;;;30.98;;
52043;SDS011;38053;53.100;6.078;2023-09-18T04:48:36;43.17;;;32.67;;
52043;SDS011;38053;53.100;6.078;2023-09-18T04:51:02;44.90;;;32.53;;
52043;SDS011;38053;53.100;6.078;2023-09-18T04:53:29;51.53;;;31.05;;
52043;SDS011;38053;53.100;6.078;2023-09-18T04:55:58;38.23;;;30.07;;
52043;SDS011;38053;53.100;6.078;2023-09-18T04:58:25;36.42;;;30.20;;
52043;SDS011;38053;53.100;6.078;2023-09-18T05:00:58;34.13;;;28.55;;
52043;SDS011;38053;53.100;6.078;2023-09-18T05:03:25;34.40;;;28.98;;
52043;SDS011;38053;53.100;6.078;2023-09-18T05:05:54;38.75;;;29.08;;
52043;SDS011;38053;53.100;6.078;2023-09-18T05:08:20;38.67;;;29.58;;
52043;SDS011;38053;53.100;6.078;2023-09-18T05:10:48;37.28;;;28.92;;
52043;SDS011;38053;53.100;6.078;2023-09-18T05:13:17;35.97;;;29.92;;
52043;SDS011;38053;53.100;6.078;2023-09-18T05:15:43;39.42;;;29.27;;
52043;SDS011;38053;53.100;6.078;2023-09-18T05:18:11;41.15;;;28.13;;
52043;SDS011;38053;53.100;6.078;2023-09-18T05:20:39;37.35;;;28.27;;
52043;SDS011;38053;53.100;6.078;2023-09-18T05:23:06;39.03;;;27.90;;
52043;SDS011;38053;53.100;6.078;2023-09-18T05:25:34;34.53;;;28.13;;
52043;SDS011;38053;53.100;6.078;2023-09-18T05:28:06;35.50;;;28.88;;
52043;SDS011;38053;53.100;6.078;2023-09-18T05:30:32;36.38;;;28.80;;
52043;SDS011;38053;53.100;6.078;2023-09-18T05:33:01;35.97;;;29.00;;
52043;SDS011;38053;53.100;6.078;2023-09-18T05:35:35;39.30;;;29.08;;
52043;SDS011;38053;53.100;6.078;2023-09-18T05:38:02;36.85;;;28.38;;
52043;SDS011;38053;53.100;6.078;2023-09-18T05:40:31;39.42;;;27.40;;
52043;SDS011;38053;53.100;6.078;2023-09-18T05:42:57;30.17;;;25.52;;
52043;SDS011;38053;53.100;6.078;2023-09-18T05:45:23;30.13;;;24.48;;
52043;SDS011;38053;53.100;6.078;2023-09-18T05:47:49;35.60;;;25.13;;
52043;SDS011;38053;53.100;6.078;2023-09-18T05:50:18;30.55;;;24.58;;
52043;SDS011;38053;53.100;6.078;2023-09-18T05:52:45;32.65;;;25.52;;
52043;SDS011;38053;53.100;6.078;2023-09-18T05:55:12;31.25;;;25.77;;
52043;SDS011;38053;53.100;6.078;2023-09-18T05:57:41;33.67;;;23.27;;
52043;SDS011;38053;53.100;6.078;2023-09-18T06:00:07;32.13;;;23.58;;
52043;SDS011;38053;53.100;6.078;2023-09-18T06:02:37;30.60;;;22.05;;
52043;SDS011;38053;53.100;6.078;2023-09-18T06:05:04;30.23;;;24.05;;
52043;SDS011;38053;53.100;6.078;2023-09-18T06:07:30;31.63;;;22.75;;
52043;SDS011;38053;53.100;6.078;2023-09-18T06:09:56;30.60;;;22.45;;
52043;SDS011;38053;53.100;6.078;2023-09-18T06:12:22;40.30;;;23.95;;
52043;SDS011;38053;53.100;6.078;2023-09-18T06:14:49;25.75;;;20.42;;
52043;SDS011;38053;53.100;6.078;2023-09-18T06:17:15;24.48;;;20.50;;
52043;SDS011;38053;53.100;6.078;2023-09-18T06:19:42;28.42;;;20.33;;
52043;SDS011;38053;53.100;6.078;2023-09-18T06:22:08;29.63;;;22.30;;
52043;SDS011;38053;53.100;6.078;2023-09-18T06:24:36;32.70;;;21.00;;
52043;SDS011;38053;53.100;6.078;2023-09-18T06:27:02;26.58;;;22.17;;
52043;SDS011;38053;53.100;6.078;2023-09-18T06:29:34;32.67;;;23.65;;
52043;SDS011;38053;53.100;6.078;2023-09-18T06:32:02;30.77;;;22.02;;
52043;SDS011;38053;53.100;6.078;2023-09-18T06:34:28;35.63;;;24.05;;
52043;SDS011;38053;53.100;6.078;2023-09-18T06:36:54;28.80;;;22.85;;
52043;SDS011;38053;53.100;6.078;2023-09-18T06:39:20;35.30;;;23.52;;
52043;SDS011;38053;53.100;6.078;2023-09-18T06:41:47;31.65;;;23.48;;
52043;SDS011;38053;53.100;6.078;2023-09-18T06:44:13;28.88;;;23.23;;
52043;SDS011;38053;53.100;6.078;2023-09-18T06:46:39;33.95;;;24.42;;
52043;SDS011;38053;53.100;6.078;2023-09-18T06:49:05;38.20;;;24.63;;
52043;SDS011;38053;53.100;6.078;2023-09-18T06:51:34;39.40;;;25.45;;
52043;SDS011;38053;53.100;6.078;2023-09-18T06:54:00;47.70;;;28.55;;
52043;SDS011;38053;53.100;6.078;2023-09-18T06:56:27;39.42;;;28.00;;
52043;SDS011;38053;53.100;6.078;2023-09-18T06:58:54;37.33;;;27.00;;
52043;SDS011;38053;53.100;6.078;2023-09-18T07:01:20;44.45;;;26.17;;
52043;SDS011;38053;53.100;6.078;2023-09-18T07:03:47;45.55;;;31.00;;
52043;SDS011;38053;53.100;6.078;2023-09-18T07:06:13;60.25;;;30.70;;
52043;SDS011;38053;53.100;6.078;2023-09-18T07:08:47;41.55;;;26.98;;
52043;SDS011;38053;53.100;6.078;2023-09-18T07:11:16;36.67;;;24.48;;
52043;SDS011;38053;53.100;6.078;2023-09-18T07:13:42;35.88;;;24.52;;
52043;SDS011;38053;53.100;6.078;2023-09-18T07:16:11;43.22;;;24.58;;
52043;SDS011;38053;53.100;6.078;2023-09-18T07:18:38;43.22;;;24.58;;
52043;SDS011;38053;53.100;6.078;2023-09-18T07:21:04;38.78;;;24.13;;
52043;SDS011;38053;53.100;6.078;2023-09-18T07:23:30;40.70;;;26.15;;
52043;SDS011;38053;53.100;6.078;2023-09-18T07:25:55;47.15;;;25.48;;
52043;SDS011;38053;53.100;6.078;2023-09-18T07:28:23;40.97;;;22.75;;
52043;SDS011;38053;53.100;6.078;2023-09-18T07:30:49;31.85;;;20.35;;
52043;SDS011;38053;53.100;6.078;2023-09-18T07:33:15;29.67;;;18.08;;
52043;SDS011;38053;53.100;6.078;2023-09-18T07:35:45;26.67;;;16.33;;
52043;SDS011;38053;53.100;6.078;2023-09-18T07:38:14;29.33;;;16.30;;
52043;SDS011;38053;53.100;6.078;2023-09-18T07:40:40;25.38;;;16.42;;
52043;SDS011;38053;53.100;6.078;2023-09-18T07:43:06;33.60;;;19.17;;
52043;SDS011;38053;53.100;6.078;2023-09-18T07:45:31;38.30;;;20.55;;
52043;SDS011;38053;53.100;6.078;2023-09-18T07:47:58;36.65;;;20.65;;
52043;SDS011;38053;53.100;6.078;2023-09-18T07:50:24;45.03;;;23.38;;
52043;SDS011;38053;53.100;6.078;2023-09-18T07:52:50;45.38;;;23.05;;
52043;SDS011;38053;53.100;6.078;2023-09-18T07:55:16;27.33;;;17.05;;
52043;SDS011;38053;53.100;6.078;2023-09-18T07:57:41;30.67;;;18.15;;
52043;SDS011;38053;53.100;6.078;2023-09-18T08:00:09;30.52;;;17.92;;
52043;SDS011;38053;53.100;6.078;2023-09-18T08:02:41;33.92;;;19.15;;
52043;SDS011;38053;53.100;6.078;2023-09-18T08:05:07;32.22;;;20.30;;
52043;SDS011;38053;53.100;6.078;2023-09-18T08:07:33;38.00;;;23.40;;
52043;SDS011;38053;53.100;6.078;2023-09-18T08:10:01;42.25;;;23.60;;
52043;SDS011;38053;53.100;6.078;2023-09-18T08:12:32;43.47;;;25.17;;
52043;SDS011;38053;53.100;6.078;2023-09-18T08:15:01;35.20;;;21.03;;
52043;SDS011;38053;53.100;6.078;2023-09-18T08:17:27;42.25;;;22.70;;
52043;SDS011;38053;53.100;6.078;2023-09-18T08:19:54;45.65;;;22.95;;
52043;SDS011;38053;53.100;6.078;2023-09-18T08:22:20;39.20;;;21.45;;
52043;SDS011;38053;53.100;6.078;2023-09-18T08:24:50;25.92;;;17.35;;
52043;SDS011;38053;53.100;6.078;2023-09-18T08:27:18;40.22;;;20.23;;
52043;SDS011;38053;53.100;6.078;2023-09-18T08:29:44;33.92;;;19.40;;
52043;SDS011;38053;53.100;6.078;2023-09-18T08:32:11;36.17;;;20.33;;
52043;SDS011;38053;53.100;6.078;2023-09-18T08:34:37;32.58;;;19.63;;
52043;SDS011;38053;53.100;6.078;2023-09-18T08:37:03;39.75;;;21.30;;
52043;SDS011;38053;53.100;6.078;2023-09-18T08:39:30;32.53;;;19.88;;
52043;SDS011;38053;53.100;6.078;2023-09-18T08:42:02;31.05;;;20.50;;
52043;SDS011;38053;53.100;6.078;2023-09-18T08:44:29;26.80;;;19.00;;
52043;SDS011;38053;53.100;6.078;2023-09-18T08:46:55;32.47;;;20.15;;
52043;SDS011;38053;53.100;6.078;2023-09-18T08:49:25;31.13;;;20.45;;
52043;SDS011;38053;53.100;6.078;2023-09-18T08:51:54;38.65;;;20.75;;
52043;SDS011;38053;53.100;6.078;2023-09-18T08:54:23;28.42;;;19.67;;
52043;SDS011;38053;53.100;6.078;2023-09-18T08:56:53;27.15;;;19.05;;
52043;SDS011;38053;53.100;6.078;2023-09-18T08:59:20;30.73;;;20.42;;
52043;SDS011;38053;53.100;6.078;2023-09-18T09:01:47;31.45;;;20.38;;
52043;SDS011;38053;53.100;6.078;2023-09-18T09:04:13;30.25;;;20.42;;
52043;SDS011;38053;53.100;6.078;2023-09-18T09:06:40;29.27;;;19.25;;
52043;SDS011;38053;53.100;6.078;2023-09-18T09:09:06;35.17;;;20.08;;
52043;SDS011;38053;53.100;6.078;2023-09-18T09:11:39;27.23;;;18.40;;
52043;SDS011;38053;53.100;6.078;2023-09-18T09:14:09;28.17;;;18.38;;
52043;SDS011;38053;53.100;6.078;2023-09-18T09:16:50;28.40;;;19.00;;
52043;SDS011;38053;53.100;6.078;2023-09-18T09:19:18;29.13;;;17.33;;
52043;SDS011;38053;53.100;6.078;2023-09-18T09:21:45;23.90;;;17.25;;
52043;SDS011;38053;53.100;6.078;2023-09-18T09:24:11;28.40;;;17.55;;
52043;SDS011;38053;53.100;6.078;2023-09-18T09:26:40;24.95;;;16.20;;
52043;SDS011;38053;53.100;6.078;2023-09-18T09:29:20;28.80;;;15.93;;
52043;SDS011;38053;53.100;6.078;2023-09-18T09:31:46;25.98;;;16.48;;
52043;SDS011;38053;53.100;6.078;2023-09-18T09:34:12;25.08;;;16.25;;
52043;SDS011;38053;53.100;6.078;2023-09-18T09:36:55;18.73;;;14.10;;
52043;SDS011;38053;53.100;6.078;2023-09-18T09:39:22;17.52;;;13.85;;
52043;SDS011;38053;53.100;6.078;2023-09-18T09:41:53;21.48;;;15.02;;
52043;SDS011;38053;53.100;6.078;2023-09-18T09:46:46;17.17;;;14.82;;
52043;SDS011;38053;53.100;6.078;2023-09-18T09:49:15;21.05;;;15.68;;
52043;SDS011;38053;53.100;6.078;2023-09-18T09:51:41;22.17;;;16.98;;
52043;SDS011;38053;53.100;6.078;2023-09-18T09:54:07;22.33;;;17.80;;
52043;SDS011;38053;53.100;6.078;2023-09-18T09:56:40;28.27;;;18.02;;
52043;SDS011;38053;53.100;6.078;2023-09-18T09:59:10;23.65;;;18.23;;
52043;SDS011;38053;53.100;6.078;2023-09-18T10:01:37;23.83;;;19.38;;
52043;SDS011;38053;53.100;6.078;2023-09-18T10:04:08;20.85;;;18.70;;
52043;SDS011;38053;53.100;6.078;2023-09-18T10:06:39;22.88;;;19.73;;
52043;SDS011;38053;53.100;6.078;2023-09-18T10:09:16;28.67;;;18.33;;
52043;SDS011;38053;53.100;6.078;2023-09-18T10:11:45;21.73;;;19.20;;
52043;SDS011;38053;53.100;6.078;2023-09-18T10:14:26;20.95;;;17.50;;
52043;SDS011;38053;53.100;6.078;2023-09-18T10:16:59;20.80;;;17.30;;
52043;SDS011;38053;53.100;6.078;2023-09-18T10:19:45;17.80;;;15.80;;
52043;SDS011;38053;53.100;6.078;2023-09-18T10:22:37;18.85;;;16.42;;
52043;SDS011;38053;53.100;6.078;2023-09-18T10:25:13;19.77;;;15.85;;
52043;SDS011;38053;53.100;6.078;2023-09-18T10:27:45;17.47;;;14.50;;
52043;SDS011;38053;53.100;6.078;2023-09-18T10:30:19;20.80;;;13.50;;
52043;SDS011;38053;53.100;6.078;2023-09-18T10:32:48;17.83;;;13.75;;
52043;SDS011;38053;53.100;6.078;2023-09-18T10:35:15;14.95;;;13.43;;
52043;SDS011;38053;53.100;6.078;2023-09-18T10:37:45;12.40;;;10.73;;
52043;SDS011;38053;53.100;6.078;2023-09-18T10:40:11;14.90;;;9.63;;
52043;SDS011;38053;53.100;6.078;2023-09-18T10:42:38;16.20;;;10.40;;
52043;SDS011;38053;53.100;6.078;2023-09-18T10:45:05;11.43;;;9.35;;
52043;SDS011;38053;53.100;6.078;2023-09-18T10:47:38;12.60;;;9.40;;
52043;SDS011;38053;53.100;6.078;2023-09-18T10:50:06;14.07;;;8.32;;
52043;SDS011;38053;53.100;6.078;2023-09-18T10:52:38;12.65;;;8.45;;
52043;SDS011;38053;53.100;6.078;2023-09-18T10:55:13;19.23;;;8.95;;
52043;SDS011;38053;53.100;6.078;2023-09-18T11:00:34;8.80;;;6.90;;
52043;SDS011;38053;53.100;6.078;2023-09-18T11:03:17;11.52;;;8.10;;
52043;SDS011;38053;53.100;6.078;2023-09-18T11:05:48;10.98;;;7.40;;
52043;SDS011;38053;53.100;6.078;2023-09-18T11:08:35;11.55;;;6.63;;
52043;SDS011;38053;53.100;6.078;2023-09-18T11:11:12;8.13;;;4.97;;
52043;SDS011;38053;53.100;6.078;2023-09-18T11:13:44;11.10;;;6.45;;
52043;SDS011;38053;53.100;6.078;2023-09-18T11:16:17;7.15;;;4.63;;
52043;SDS011;38053;53.100;6.078;2023-09-18T11:21:28;12.30;;;5.28;;
52043;SDS011;38053;53.100;6.078;2023-09-18T11:24:15;10.98;;;4.70;;
52043;SDS011;38053;53.100;6.078;2023-09-18T11:26:42;10.15;;;5.00;;
52043;SDS011;38053;53.100;6.078;2023-09-18T11:29:11;8.90;;;5.03;;
52043;SDS011;38053;53.100;6.078;2023-09-18T11:34:26;8.07;;;4.20;;
52043;SDS011;38053;53.100;6.078;2023-09-18T11:37:00;7.97;;;3.85;;
52043;SDS011;38053;53.100;6.078;2023-09-18T11:39:39;8.95;;;4.13;;
52043;SDS011;38053;53.100;6.078;2023-09-18T11:42:13;8.98;;;4.35;;
52043;SDS011;38053;53.100;6.078;2023-09-18T11:44:58;10.88;;;4.75;;
52043;SDS011;38053;53.100;6.078;2023-09-18T11:47:24;7.40;;;4.00;;
52043;SDS011;38053;53.100;6.078;2023-09-18T11:49:53;9.75;;;4.53;;
52043;SDS011;38053;53.100;6.078;2023-09-18T11:52:27;9.40;;;3.90;;
52043;SDS011;38053;53.100;6.078;2023-09-18T11:54:58;14.10;;;4.10;;
52043;SDS011;38053;53.100;6.078;2023-09-18T11:59:51;11.50;;;4.45;;
52043;SDS011;38053;53.100;6.078;2023-09-18T12:02:27;8.05;;;4.75;;
52043;SDS011;38053;53.100;6.078;2023-09-18T12:05:10;7.03;;;3.42;;
52043;SDS011;38053;53.100;6.078;2023-09-18T12:07:39;13.43;;;3.60;;
52043;SDS011;38053;53.100;6.078;2023-09-18T12:10:08;7.28;;;4.25;;
52043;SDS011;38053;53.100;6.078;2023-09-18T12:12:35;7.97;;;3.50;;
52043;SDS011;38053;53.100;6.078;2023-09-18T12:15:01;6.78;;;3.00;;
52043;SDS011;38053;53.100;6.078;2023-09-18T12:17:27;9.52;;;3.05;;
52043;SDS011;38053;53.100;6.078;2023-09-18T12:19:53;5.55;;;2.92;;
52043;SDS011;38053;53.100;6.078;2023-09-18T12:22:28;6.18;;;3.58;;
52043;SDS011;38053;53.100;6.078;2023-09-18T12:27:54;6.05;;;3.42;;
52043;SDS011;38053;53.100;6.078;2023-09-18T12:30:21;8.38;;;3.47;;
52043;SDS011;38053;53.100;6.078;2023-09-18T12:32:49;7.63;;;3.10;;
52043;SDS011;38053;53.100;6.078;2023-09-18T12:35:16;8.93;;;4.07;;
52043;SDS011;38053;53.100;6.078;2023-09-18T12:37:43;10.55;;;3.47;;
52043;SDS011;38053;53.100;6.078;2023-09-18T12:42:58;6.05;;;3.38;;
52043;SDS011;38053;53.100;6.078;2023-09-18T12:45:28;7.43;;;3.90;;
52043;SDS011;38053;53.100;6.078;2023-09-18T12:47:55;10.20;;;4.03;;
52043;SDS011;38053;53.100;6.078;2023-09-18T12:50:22;6.78;;;3.53;;
52043;SDS011;38053;53.100;6.078;2023-09-18T12:52:48;10.18;;;3.40;;
52043;SDS011;38053;53.100;6.078;2023-09-18T12:55:20;5.30;;;3.05;;
52043;SDS011;38053;53.100;6.078;2023-09-18T12:57:47;9.82;;;3.38;;
52043;SDS011;38053;53.100;6.078;2023-09-18T13:00:15;6.18;;;2.40;;
52043;SDS011;38053;53.100;6.078;2023-09-18T13:02:45;7.55;;;3.55;;
52043;SDS011;38053;53.100;6.078;2023-09-18T13:05:11;7.90;;;2.70;;
52043;SDS011;38053;53.100;6.078;2023-09-18T13:07:43;5.15;;;2.97;;
52043;SDS011;38053;53.100;6.078;2023-09-18T13:10:12;5.47;;;2.95;;
52043;SDS011;38053;53.100;6.078;2023-09-18T13:12:49;6.20;;;2.60;;
52043;SDS011;38053;53.100;6.078;2023-09-18T13:15:27;5.18;;;2.75;;
52043;SDS011;38053;53.100;6.078;2023-09-18T13:18:15;5.35;;;2.90;;
52043;SDS011;38053;53.100;6.078;2023-09-18T13:20:42;6.95;;;3.35;;
52043;SDS011;38053;53.100;6.078;2023-09-18T13:23:08;8.30;;;3.65;;
52043;SDS011;38053;53.100;6.078;2023-09-18T13:25:41;10.10;;;3.78;;
52043;SDS011;38053;53.100;6.078;2023-09-18T13:28:09;7.55;;;4.18;;
52043;SDS011;38053;53.100;6.078;2023-09-18T13:30:36;5.38;;;3.15;;
52043;SDS011;38053;53.100;6.078;2023-09-18T13:33:04;9.20;;;3.42;;
52043;SDS011;38053;53.100;6.078;2023-09-18T13:35:36;6.28;;;3.30;;
52043;SDS011;38053;53.100;6.078;2023-09-18T13:38:04;5.63;;;2.83;;
52043;SDS011;38053;53.100;6.078;2023-09-18T13:40:31;7.57;;;2.97;;
52043;SDS011;38053;53.100;6.078;2023-09-18T13:42:58;4.45;;;2.13;;
52043;SDS011;38053;53.100;6.078;2023-09-18T13:45:24;5.45;;;3.10;;
52043;SDS011;38053;53.100;6.078;2023-09-18T13:47:50;7.68;;;2.65;;
52043;SDS011;38053;53.100;6.078;2023-09-18T13:50:16;4.38;;;2.63;;
52043;SDS011;38053;53.100;6.078;2023-09-18T13:52:42;6.45;;;3.13;;
52043;SDS011;38053;53.100;6.078;2023-09-18T13:55:07;6.45;;;2.50;;
52043;SDS011;38053;53.100;6.078;2023-09-18T13:57:35;3.75;;;2.08;;
52043;SDS011;38053;53.100;6.078;2023-09-18T14:00:01;7.35;;;2.78;;
52043;SDS011;38053;53.100;6.078;2023-09-18T14:02:34;7.95;;;2.58;;
52043;SDS011;38053;53.100;6.078;2023-09-18T14:05:00;7.68;;;2.90;;
52043;SDS011;38053;53.100;6.078;2023-09-18T14:07:26;7.90;;;3.60;;
52043;SDS011;38053;53.100;6.078;2023-09-18T14:09:52;8.80;;;3.17;;
52043;SDS011;38053;53.100;6.078;2023-09-18T14:12:17;5.85;;;3.75;;
52043;SDS011;38053;53.100;6.078;2023-09-18T14:14:46;8.82;;;3.35;;
52043;SDS011;38053;53.100;6.078;2023-09-18T14:17:12;7.63;;;3.08;;
52043;SDS011;38053;53.100;6.078;2023-09-18T14:19:38;7.38;;;2.60;;
52043;SDS011;38053;53.100;6.078;2023-09-18T14:22:05;5.78;;;3.35;;
52043;SDS011;38053;53.100;6.078;2023-09-18T14:24:31;4.22;;;2.80;;
52043;SDS011;38053;53.100;6.078;2023-09-18T14:27:08;8.10;;;3.38;;
52043;SDS011;38053;53.100;6.078;2023-09-18T14:29:37;5.63;;;3.05;;
52043;SDS011;38053;53.100;6.078;2023-09-18T14:32:03;9.48;;;3.58;;
52043;SDS011;38053;53.100;6.078;2023-09-18T14:34:29;6.30;;;2.83;;
52043;SDS011;38053;53.100;6.078;2023-09-18T14:36:56;4.95;;;3.13;;
52043;SDS011;38053;53.100;6.078;2023-09-18T14:39:22;8.32;;;3.92;;
52043;SDS011;38053;53.100;6.078;2023-09-18T14:41:48;5.82;;;3.78;;
52043;SDS011;38053;53.100;6.078;2023-09-18T14:44:14;9.63;;;3.60;;
52043;SDS011;38053;53.100;6.078;2023-09-18T14:46:40;6.40;;;3.50;;
52043;SDS011;38053;53.100;6.078;2023-09-18T14:49:08;7.25;;;3.95;;
52043;SDS011;38053;53.100;6.078;2023-09-18T14:51:34;8.35;;;3.17;;
52043;SDS011;38053;53.100;6.078;2023-09-18T14:54:00;12.48;;;4.40;;
52043;SDS011;38053;53.100;6.078;2023-09-18T14:56:29;5.80;;;4.22;;
52043;SDS011;38053;53.100;6.078;2023-09-18T14:58:56;6.15;;;4.13;;